Archival Weather

Chicago O'Hare International

Chicago, Illinois (KORD)

Report from: Sunday, March 6, 2022 8:51 AM CST
Current time: Saturday, February 4, 2023 9:58 PM CST

Current weather
Weather history
Weather forecast

Temperature2.2°C (36.0°F)
Wind chill-4.3°C (24.2°F)
Dew point-2.2°C (28.0°F)
Winds 21 kts (10.8 m/s, 24.2 mph) West (260°)
Wind gusts 31 kts (15.9 m/s, 35.7 mph)
Peak wind 39 kts (20.1 m/s, 44.9 mph) West-Southwest (250°) at 08:14
Visibility10 mi. (16.1 km)
Clouds Ceiling: Overcast 1,700 ft. (518 m)
Altimeter29.92 in.Hg (1013 mB)
Relative humidity73 %
Density altitude-1,475 ft. (-449 m)
Sea-level pressure101.3 kPa (1013 mB, 29.92 in.Hg)
Remarks System requires maintenance
Automated weather observing station with precipitation discriminator
Pressure rising more quickly
Flight conditions Marginal Visual Meteorological Conditions
Raw dataKORD 061451Z 26021G31KT 10SM OVC017 02/M02 A2992 RMK AO2 PK WND 25039/1414 SLP132 T00221022 53037 $
An unhandled exception has occurred. See browser dev tools for details. Reload 🗙